WALL/BPN METAR and TAF weather

Enter ICAO airport designator
Station Type Date Time Source
WALL METAR 2021/03/20 03:00 UTC NOAA

WALL 200300Z 02008KT 1500 +RA FEW017 BKN017 25/25 Q1007


Station Type Date Time Source
WALL Decoded METAR 2021/03/20 03:00 UTC NOAA

Station name not available
Mar 19, 2021 - 11:00 PM EDT / 2021.03.20 0300 UTC
Wind: from the NNE (020 degrees) at 9 MPH (8 KT):0
Visibility: less than 1 mile:0
Sky conditions: mostly cloudy
Weather: heavy rain
Temperature: 77 F (25 C)
Dew Point: 77 F (25 C)
Relative Humidity: 100%
Pressure (altimeter): 29.74 in. Hg (1007 hPa)
ob: WALL 200300Z 02008KT 1500 +RA FEW017 BKN017 25/25 Q1007
cycle: 3

Station Type Date Time Source
WALL TAF 2021/05/14 12:00 UTC NOAA

TAF WALL 141100Z 1412/1518 28004KT 9999 FEW018 PROB30
TEMPO 1412/1415 5000 SHRA FEW015TCU

Example: see airport list